sensor_id;sensor_type;location;lat;lon;timestamp;pressure;altitude;pressure_sealevel;temperature
64904;BMP280;51401;48.882;12.598;2024-02-28T00:00:54;64165.91;;;-137.53
64904;BMP280;51401;48.882;12.598;2024-02-28T00:03:19;64167.88;;;-137.53
64904;BMP280;51401;48.882;12.598;2024-02-28T00:05:45;64167.88;;;-137.53
64904;BMP280;51401;48.882;12.598;2024-02-28T00:08:11;64167.88;;;-137.53
64904;BMP280;51401;48.882;12.598;2024-02-28T00:10:36;64167.88;;;-137.53
64904;BMP280;51401;48.882;12.598;2024-02-28T00:13:01;64165.91;;;-137.53
64904;BMP280;51401;48.882;12.598;2024-02-28T00:15:26;64167.88;;;-137.53
64904;BMP280;51401;48.882;12.598;2024-02-28T00:17:52;64163.91;;;-137.53
64904;BMP280;51401;48.882;12.598;2024-02-28T00:20:18;64167.88;;;-137.53
64904;BMP280;51401;48.882;12.598;2024-02-28T00:22:43;64165.91;;;-137.53
64904;BMP280;51401;48.882;12.598;2024-02-28T00:25:09;64167.88;;;-137.53
64904;BMP280;51401;48.882;12.598;2024-02-28T00:27:36;64163.91;;;-137.53
64904;BMP280;51401;48.882;12.598;2024-02-28T00:30:03;64163.91;;;-137.53
64904;BMP280;51401;48.882;12.598;2024-02-28T00:32:31;64167.88;;;-137.53
64904;BMP280;51401;48.882;12.598;2024-02-28T00:34:56;64167.88;;;-137.53
64904;BMP280;51401;48.882;12.598;2024-02-28T00:37:21;64167.88;;;-137.53
64904;BMP280;51401;48.882;12.598;2024-02-28T00:39:47;64167.88;;;-137.53
64904;BMP280;51401;48.882;12.598;2024-02-28T00:42:12;64165.91;;;-137.53
64904;BMP280;51401;48.882;12.598;2024-02-28T00:44:37;64171.84;;;-137.53
64904;BMP280;51401;48.882;12.598;2024-02-28T00:47:02;64167.88;;;-137.53
64904;BMP280;51401;48.882;12.598;2024-02-28T00:49:28;64167.88;;;-137.53
64904;BMP280;51401;48.882;12.598;2024-02-28T00:51:53;64167.88;;;-137.53
64904;BMP280;51401;48.882;12.598;2024-02-28T00:54:18;64169.88;;;-137.53
64904;BMP280;51401;48.882;12.598;2024-02-28T00:56:43;64167.88;;;-137.53
64904;BMP280;51401;48.882;12.598;2024-02-28T00:59:09;64163.91;;;-137.53
64904;BMP280;51401;48.882;12.598;2024-02-28T01:01:37;64165.91;;;-137.53
64904;BMP280;51401;48.882;12.598;2024-02-28T01:04:03;64163.91;;;-137.53
64904;BMP280;51401;48.882;12.598;2024-02-28T01:06:28;64167.88;;;-137.53
64904;BMP280;51401;48.882;12.598;2024-02-28T01:08:53;64167.88;;;-137.53
64904;BMP280;51401;48.882;12.598;2024-02-28T01:11:18;64165.91;;;-137.53
64904;BMP280;51401;48.882;12.598;2024-02-28T01:13:44;64167.88;;;-137.53
64904;BMP280;51401;48.882;12.598;2024-02-28T01:16:09;64167.88;;;-137.53
64904;BMP280;51401;48.882;12.598;2024-02-28T01:18:34;64167.88;;;-137.53
64904;BMP280;51401;48.882;12.598;2024-02-28T01:20:59;64165.91;;;-137.53
64904;BMP280;51401;48.882;12.598;2024-02-28T01:23:25;64167.88;;;-137.53
64904;BMP280;51401;48.882;12.598;2024-02-28T01:25:50;64165.91;;;-137.53
64904;BMP280;51401;48.882;12.598;2024-02-28T01:28:16;64163.91;;;-137.53
64904;BMP280;51401;48.882;12.598;2024-02-28T01:30:41;64167.88;;;-137.53
64904;BMP280;51401;48.882;12.598;2024-02-28T01:33:06;64171.84;;;-137.53
64904;BMP280;51401;48.882;12.598;2024-02-28T01:35:32;64165.91;;;-137.53
64904;BMP280;51401;48.882;12.598;2024-02-28T01:37:57;64167.88;;;-137.53
64904;BMP280;51401;48.882;12.598;2024-02-28T01:40:22;64167.88;;;-137.53
64904;BMP280;51401;48.882;12.598;2024-02-28T01:42:48;64167.88;;;-137.53
64904;BMP280;51401;48.882;12.598;2024-02-28T01:45:14;64167.88;;;-137.53
64904;BMP280;51401;48.882;12.598;2024-02-28T01:47:41;64167.88;;;-137.53
64904;BMP280;51401;48.882;12.598;2024-02-28T01:50:07;64171.84;;;-137.53
64904;BMP280;51401;48.882;12.598;2024-02-28T01:52:32;64165.91;;;-137.53
64904;BMP280;51401;48.882;12.598;2024-02-28T01:54:57;64167.88;;;-137.53
64904;BMP280;51401;48.882;12.598;2024-02-28T01:57:23;64167.88;;;-137.53
64904;BMP280;51401;48.882;12.598;2024-02-28T01:59:49;64167.88;;;-137.53
64904;BMP280;51401;48.882;12.598;2024-02-28T02:02:14;64167.88;;;-137.53
64904;BMP280;51401;48.882;12.598;2024-02-28T02:04:40;64167.88;;;-137.53
64904;BMP280;51401;48.882;12.598;2024-02-28T02:07:06;64165.91;;;-137.53
64904;BMP280;51401;48.882;12.598;2024-02-28T02:09:34;64167.88;;;-137.53
64904;BMP280;51401;48.882;12.598;2024-02-28T02:12:00;64167.88;;;-137.53
64904;BMP280;51401;48.882;12.598;2024-02-28T02:14:25;64167.88;;;-137.53
64904;BMP280;51401;48.882;12.598;2024-02-28T02:16:51;64165.91;;;-137.53
64904;BMP280;51401;48.882;12.598;2024-02-28T02:19:16;64167.88;;;-137.53
64904;BMP280;51401;48.882;12.598;2024-02-28T02:21:49;64167.88;;;-137.53
64904;BMP280;51401;48.882;12.598;2024-02-28T02:24:15;64171.84;;;-137.53
64904;BMP280;51401;48.882;12.598;2024-02-28T02:26:40;64167.88;;;-137.53
64904;BMP280;51401;48.882;12.598;2024-02-28T02:29:09;64169.88;;;-137.53
64904;BMP280;51401;48.882;12.598;2024-02-28T02:31:34;64167.88;;;-137.53
64904;BMP280;51401;48.882;12.598;2024-02-28T02:33:59;64167.88;;;-137.53
64904;BMP280;51401;48.882;12.598;2024-02-28T02:36:25;64169.88;;;-137.53
64904;BMP280;51401;48.882;12.598;2024-02-28T02:38:50;64167.88;;;-137.53
64904;BMP280;51401;48.882;12.598;2024-02-28T02:41:15;64163.91;;;-137.53
64904;BMP280;51401;48.882;12.598;2024-02-28T02:43:40;64163.91;;;-137.53
64904;BMP280;51401;48.882;12.598;2024-02-28T02:46:06;64167.88;;;-137.53
64904;BMP280;51401;48.882;12.598;2024-02-28T02:48:31;64167.88;;;-137.53
64904;BMP280;51401;48.882;12.598;2024-02-28T02:50:56;64169.88;;;-137.53
64904;BMP280;51401;48.882;12.598;2024-02-28T02:53:22;64169.88;;;-137.53
64904;BMP280;51401;48.882;12.598;2024-02-28T02:55:47;64167.88;;;-137.53
64904;BMP280;51401;48.882;12.598;2024-02-28T02:58:12;64167.88;;;-137.53
64904;BMP280;51401;48.882;12.598;2024-02-28T03:00:37;64173.84;;;-137.53
64904;BMP280;51401;48.882;12.598;2024-02-28T03:03:03;64171.84;;;-137.53
64904;BMP280;51401;48.882;12.598;2024-02-28T03:05:28;64167.88;;;-137.53
64904;BMP280;51401;48.882;12.598;2024-02-28T03:07:53;64169.88;;;-137.53
64904;BMP280;51401;48.882;12.598;2024-02-28T03:10:19;64171.84;;;-137.53
64904;BMP280;51401;48.882;12.598;2024-02-28T03:12:44;64169.88;;;-137.53
64904;BMP280;51401;48.882;12.598;2024-02-28T03:15:09;64173.84;;;-137.53
64904;BMP280;51401;48.882;12.598;2024-02-28T03:17:35;64171.84;;;-137.53
64904;BMP280;51401;48.882;12.598;2024-02-28T03:20:00;64171.84;;;-137.53
64904;BMP280;51401;48.882;12.598;2024-02-28T03:22:25;64169.88;;;-137.53
64904;BMP280;51401;48.882;12.598;2024-02-28T03:24:50;64173.84;;;-137.53
64904;BMP280;51401;48.882;12.598;2024-02-28T03:27:16;64167.88;;;-137.53
64904;BMP280;51401;48.882;12.598;2024-02-28T03:29:41;64169.88;;;-137.53
64904;BMP280;51401;48.882;12.598;2024-02-28T03:32:06;64167.88;;;-137.53
64904;BMP280;51401;48.882;12.598;2024-02-28T03:34:32;64171.84;;;-137.53
64904;BMP280;51401;48.882;12.598;2024-02-28T03:36:57;64169.88;;;-137.53
64904;BMP280;51401;48.882;12.598;2024-02-28T03:39:22;64169.88;;;-137.53
64904;BMP280;51401;48.882;12.598;2024-02-28T03:41:47;64167.88;;;-137.53
64904;BMP280;51401;48.882;12.598;2024-02-28T03:44:13;64167.88;;;-137.53
64904;BMP280;51401;48.882;12.598;2024-02-28T03:46:38;64171.84;;;-137.53
64904;BMP280;51401;48.882;12.598;2024-02-28T03:49:03;64169.88;;;-137.53
64904;BMP280;51401;48.882;12.598;2024-02-28T03:51:28;64167.88;;;-137.53
64904;BMP280;51401;48.882;12.598;2024-02-28T03:53:54;64171.84;;;-137.53
64904;BMP280;51401;48.882;12.598;2024-02-28T03:56:26;64169.88;;;-137.53
64904;BMP280;51401;48.882;12.598;2024-02-28T03:58:53;64169.88;;;-137.53
64904;BMP280;51401;48.882;12.598;2024-02-28T04:01:18;64169.88;;;-137.53
64904;BMP280;51401;48.882;12.598;2024-02-28T04:03:44;64169.88;;;-137.53
64904;BMP280;51401;48.882;12.598;2024-02-28T04:06:10;64171.84;;;-137.53
64904;BMP280;51401;48.882;12.598;2024-02-28T04:08:35;64167.88;;;-137.53
64904;BMP280;51401;48.882;12.598;2024-02-28T04:11:01;64171.84;;;-137.53
64904;BMP280;51401;48.882;12.598;2024-02-28T04:13:26;64169.88;;;-137.53
64904;BMP280;51401;48.882;12.598;2024-02-28T04:15:51;64173.84;;;-137.53
64904;BMP280;51401;48.882;12.598;2024-02-28T04:18:16;64171.84;;;-137.53
64904;BMP280;51401;48.882;12.598;2024-02-28T04:20:42;64171.84;;;-137.53
64904;BMP280;51401;48.882;12.598;2024-02-28T04:23:07;64169.88;;;-137.53
64904;BMP280;51401;48.882;12.598;2024-02-28T04:25:32;64173.84;;;-137.53
64904;BMP280;51401;48.882;12.598;2024-02-28T04:27:57;64171.84;;;-137.53
64904;BMP280;51401;48.882;12.598;2024-02-28T04:30:23;64167.88;;;-137.53
64904;BMP280;51401;48.882;12.598;2024-02-28T04:32:48;64171.84;;;-137.53
64904;BMP280;51401;48.882;12.598;2024-02-28T04:35:14;64171.84;;;-137.53
64904;BMP280;51401;48.882;12.598;2024-02-28T04:37:43;64169.88;;;-137.53
64904;BMP280;51401;48.882;12.598;2024-02-28T04:40:10;64167.88;;;-137.53
64904;BMP280;51401;48.882;12.598;2024-02-28T04:42:36;64175.84;;;-137.53
64904;BMP280;51401;48.882;12.598;2024-02-28T04:45:01;64175.84;;;-137.53
64904;BMP280;51401;48.882;12.598;2024-02-28T04:47:27;64169.88;;;-137.53
64904;BMP280;51401;48.882;12.598;2024-02-28T04:49:53;64171.84;;;-137.53
64904;BMP280;51401;48.882;12.598;2024-02-28T04:52:18;64171.84;;;-137.53
64904;BMP280;51401;48.882;12.598;2024-02-28T04:54:43;64167.88;;;-137.53
64904;BMP280;51401;48.882;12.598;2024-02-28T04:57:08;64171.84;;;-137.53
64904;BMP280;51401;48.882;12.598;2024-02-28T04:59:35;64171.84;;;-137.53
64904;BMP280;51401;48.882;12.598;2024-02-28T05:02:00;64173.84;;;-137.53
64904;BMP280;51401;48.882;12.598;2024-02-28T05:04:25;64171.84;;;-137.53
64904;BMP280;51401;48.882;12.598;2024-02-28T05:06:51;64169.88;;;-137.53
64904;BMP280;51401;48.882;12.598;2024-02-28T05:09:17;64171.84;;;-137.53
64904;BMP280;51401;48.882;12.598;2024-02-28T05:11:43;64171.84;;;-137.53
64904;BMP280;51401;48.882;12.598;2024-02-28T05:14:09;64171.84;;;-137.53
64904;BMP280;51401;48.882;12.598;2024-02-28T05:16:35;64175.84;;;-137.53
64904;BMP280;51401;48.882;12.598;2024-02-28T05:19:00;64171.84;;;-137.53
64904;BMP280;51401;48.882;12.598;2024-02-28T05:21:25;64169.88;;;-137.53
64904;BMP280;51401;48.882;12.598;2024-02-28T05:23:51;64171.84;;;-137.53
64904;BMP280;51401;48.882;12.598;2024-02-28T05:26:16;64167.88;;;-137.53
64904;BMP280;51401;48.882;12.598;2024-02-28T05:28:41;64169.88;;;-137.53
64904;BMP280;51401;48.882;12.598;2024-02-28T05:31:24;64171.84;;;-137.53
64904;BMP280;51401;48.882;12.598;2024-02-28T05:33:53;64175.84;;;-137.53
64904;BMP280;51401;48.882;12.598;2024-02-28T05:36:22;64169.88;;;-137.53
64904;BMP280;51401;48.882;12.598;2024-02-28T05:38:48;64171.84;;;-137.53
64904;BMP280;51401;48.882;12.598;2024-02-28T05:41:16;64169.88;;;-137.53
64904;BMP280;51401;48.882;12.598;2024-02-28T05:43:41;64167.88;;;-137.53
64904;BMP280;51401;48.882;12.598;2024-02-28T05:46:06;64169.88;;;-137.53
64904;BMP280;51401;48.882;12.598;2024-02-28T05:48:32;64171.84;;;-137.53
64904;BMP280;51401;48.882;12.598;2024-02-28T05:50:57;64171.84;;;-137.53
64904;BMP280;51401;48.882;12.598;2024-02-28T05:53:22;64167.88;;;-137.53
64904;BMP280;51401;48.882;12.598;2024-02-28T05:55:52;64171.84;;;-137.53
64904;BMP280;51401;48.882;12.598;2024-02-28T05:58:18;64167.88;;;-137.53
64904;BMP280;51401;48.882;12.598;2024-02-28T06:00:44;64169.88;;;-137.53
64904;BMP280;51401;48.882;12.598;2024-02-28T06:03:12;64167.88;;;-137.53
64904;BMP280;51401;48.882;12.598;2024-02-28T06:05:37;64167.88;;;-137.53
64904;BMP280;51401;48.882;12.598;2024-02-28T06:08:02;64171.84;;;-137.53
64904;BMP280;51401;48.882;12.598;2024-02-28T06:10:27;64169.88;;;-137.53
64904;BMP280;51401;48.882;12.598;2024-02-28T06:12:53;64169.88;;;-137.53
64904;BMP280;51401;48.882;12.598;2024-02-28T06:15:19;64167.88;;;-137.53
64904;BMP280;51401;48.882;12.598;2024-02-28T06:17:44;64169.88;;;-137.53
64904;BMP280;51401;48.882;12.598;2024-02-28T06:20:09;64171.84;;;-137.53
64904;BMP280;51401;48.882;12.598;2024-02-28T06:22:34;64167.88;;;-137.53
64904;BMP280;51401;48.882;12.598;2024-02-28T06:25:00;64169.88;;;-137.53
64904;BMP280;51401;48.882;12.598;2024-02-28T06:27:25;64165.91;;;-137.53
64904;BMP280;51401;48.882;12.598;2024-02-28T06:29:51;64169.88;;;-137.53
64904;BMP280;51401;48.882;12.598;2024-02-28T06:32:17;64163.91;;;-137.53
64904;BMP280;51401;48.882;12.598;2024-02-28T06:34:42;64165.91;;;-137.53
64904;BMP280;51401;48.882;12.598;2024-02-28T06:37:07;64165.91;;;-137.53
64904;BMP280;51401;48.882;12.598;2024-02-28T06:39:32;64169.88;;;-137.53
64904;BMP280;51401;48.882;12.598;2024-02-28T06:41:58;64167.88;;;-137.53
64904;BMP280;51401;48.882;12.598;2024-02-28T06:44:23;64165.91;;;-137.53
64904;BMP280;51401;48.882;12.598;2024-02-28T06:46:48;64169.88;;;-137.53
64904;BMP280;51401;48.882;12.598;2024-02-28T06:49:13;64167.88;;;-137.53
64904;BMP280;51401;48.882;12.598;2024-02-28T06:51:39;64165.91;;;-137.53
64904;BMP280;51401;48.882;12.598;2024-02-28T06:54:04;64165.91;;;-137.53
64904;BMP280;51401;48.882;12.598;2024-02-28T06:56:32;64167.88;;;-137.53
64904;BMP280;51401;48.882;12.598;2024-02-28T06:58:57;64163.91;;;-137.53
64904;BMP280;51401;48.882;12.598;2024-02-28T07:01:23;64167.88;;;-137.53
64904;BMP280;51401;48.882;12.598;2024-02-28T07:03:48;64167.88;;;-137.53
64904;BMP280;51401;48.882;12.598;2024-02-28T07:06:13;64167.88;;;-137.53
64904;BMP280;51401;48.882;12.598;2024-02-28T07:08:38;64169.88;;;-137.53
64904;BMP280;51401;48.882;12.598;2024-02-28T07:11:04;64165.91;;;-137.53
64904;BMP280;51401;48.882;12.598;2024-02-28T07:13:29;64167.88;;;-137.53
64904;BMP280;51401;48.882;12.598;2024-02-28T07:15:55;64165.91;;;-137.53
64904;BMP280;51401;48.882;12.598;2024-02-28T07:18:22;64165.91;;;-137.53
64904;BMP280;51401;48.882;12.598;2024-02-28T07:20:50;64165.91;;;-137.53
64904;BMP280;51401;48.882;12.598;2024-02-28T07:23:17;64163.91;;;-137.53
64904;BMP280;51401;48.882;12.598;2024-02-28T07:25:42;64163.91;;;-137.53
64904;BMP280;51401;48.882;12.598;2024-02-28T07:28:07;64165.91;;;-137.53
64904;BMP280;51401;48.882;12.598;2024-02-28T07:30:32;64167.88;;;-137.53
64904;BMP280;51401;48.882;12.598;2024-02-28T07:32:58;64161.94;;;-137.53
64904;BMP280;51401;48.882;12.598;2024-02-28T07:35:23;64165.91;;;-137.53
64904;BMP280;51401;48.882;12.598;2024-02-28T07:37:50;64163.91;;;-137.53
64904;BMP280;51401;48.882;12.598;2024-02-28T07:40:15;64161.94;;;-137.53
64904;BMP280;51401;48.882;12.598;2024-02-28T07:42:40;64163.91;;;-137.53
64904;BMP280;51401;48.882;12.598;2024-02-28T07:45:06;64165.91;;;-137.53
64904;BMP280;51401;48.882;12.598;2024-02-28T07:47:34;64165.91;;;-137.53
64904;BMP280;51401;48.882;12.598;2024-02-28T07:49:59;64165.91;;;-137.53
64904;BMP280;51401;48.882;12.598;2024-02-28T07:52:24;64165.91;;;-137.53
64904;BMP280;51401;48.882;12.598;2024-02-28T07:54:49;64161.94;;;-137.53
64904;BMP280;51401;48.882;12.598;2024-02-28T07:57:15;64165.91;;;-137.53
64904;BMP280;51401;48.882;12.598;2024-02-28T07:59:43;64167.88;;;-137.53
64904;BMP280;51401;48.882;12.598;2024-02-28T08:02:09;64165.91;;;-137.53
64904;BMP280;51401;48.882;12.598;2024-02-28T08:04:37;64167.88;;;-137.53
64904;BMP280;51401;48.882;12.598;2024-02-28T08:07:02;64165.91;;;-137.53
64904;BMP280;51401;48.882;12.598;2024-02-28T08:09:28;64165.91;;;-137.53
64904;BMP280;51401;48.882;12.598;2024-02-28T08:11:53;64163.91;;;-137.53
64904;BMP280;51401;48.882;12.598;2024-02-28T08:14:19;64163.91;;;-137.53
64904;BMP280;51401;48.882;12.598;2024-02-28T08:16:44;64165.91;;;-137.53
64904;BMP280;51401;48.882;12.598;2024-02-28T08:19:10;64163.91;;;-137.53
64904;BMP280;51401;48.882;12.598;2024-02-28T08:21:35;64165.91;;;-137.53
64904;BMP280;51401;48.882;12.598;2024-02-28T08:24:00;64163.91;;;-137.53
64904;BMP280;51401;48.882;12.598;2024-02-28T08:26:29;64165.91;;;-137.53
64904;BMP280;51401;48.882;12.598;2024-02-28T08:28:54;64163.91;;;-137.53
64904;BMP280;51401;48.882;12.598;2024-02-28T08:31:19;64163.91;;;-137.53
64904;BMP280;51401;48.882;12.598;2024-02-28T08:33:45;64163.91;;;-137.53
64904;BMP280;51401;48.882;12.598;2024-02-28T08:36:10;64163.91;;;-137.53
64904;BMP280;51401;48.882;12.598;2024-02-28T08:38:35;64165.91;;;-137.53
64904;BMP280;51401;48.882;12.598;2024-02-28T08:41:04;64157.97;;;-137.53
64904;BMP280;51401;48.882;12.598;2024-02-28T08:43:29;64163.91;;;-137.53
64904;BMP280;51401;48.882;12.598;2024-02-28T08:45:54;64163.91;;;-137.53
64904;BMP280;51401;48.882;12.598;2024-02-28T08:48:20;64161.94;;;-137.53
64904;BMP280;51401;48.882;12.598;2024-02-28T08:50:45;64163.91;;;-137.53
64904;BMP280;51401;48.882;12.598;2024-02-28T08:53:11;64163.91;;;-137.53
64904;BMP280;51401;48.882;12.598;2024-02-28T08:55:36;64159.94;;;-137.53
64904;BMP280;51401;48.882;12.598;2024-02-28T08:58:01;64159.94;;;-137.53
64904;BMP280;51401;48.882;12.598;2024-02-28T09:00:26;64157.97;;;-137.53
64904;BMP280;51401;48.882;12.598;2024-02-28T09:02:52;64159.94;;;-137.53
64904;BMP280;51401;48.882;12.598;2024-02-28T09:05:17;64161.94;;;-137.53
64904;BMP280;51401;48.882;12.598;2024-02-28T09:07:43;64159.94;;;-137.53
64904;BMP280;51401;48.882;12.598;2024-02-28T09:10:09;64159.94;;;-137.53
64904;BMP280;51401;48.882;12.598;2024-02-28T09:12:34;64159.94;;;-137.53
64904;BMP280;51401;48.882;12.598;2024-02-28T09:15:00;64159.94;;;-137.53
64904;BMP280;51401;48.882;12.598;2024-02-28T09:17:25;64159.94;;;-137.53
64904;BMP280;51401;48.882;12.598;2024-02-28T09:19:50;64159.94;;;-137.53
64904;BMP280;51401;48.882;12.598;2024-02-28T09:22:16;64157.97;;;-137.53
64904;BMP280;51401;48.882;12.598;2024-02-28T09:24:42;64159.94;;;-137.53
64904;BMP280;51401;48.882;12.598;2024-02-28T09:27:07;64159.94;;;-137.53
64904;BMP280;51401;48.882;12.598;2024-02-28T09:29:33;64161.94;;;-137.53
64904;BMP280;51401;48.882;12.598;2024-02-28T09:31:58;64159.94;;;-137.53
64904;BMP280;51401;48.882;12.598;2024-02-28T09:34:24;64157.97;;;-137.53
64904;BMP280;51401;48.882;12.598;2024-02-28T09:36:49;64163.91;;;-137.53
64904;BMP280;51401;48.882;12.598;2024-02-28T09:39:15;64163.91;;;-137.53
64904;BMP280;51401;48.882;12.598;2024-02-28T09:41:43;64159.94;;;-137.53
64904;BMP280;51401;48.882;12.598;2024-02-28T09:44:08;64159.94;;;-137.53
64904;BMP280;51401;48.882;12.598;2024-02-28T09:46:34;64161.94;;;-137.53
64904;BMP280;51401;48.882;12.598;2024-02-28T09:49:04;64159.94;;;-137.53
64904;BMP280;51401;48.882;12.598;2024-02-28T09:51:34;64159.94;;;-137.53
64904;BMP280;51401;48.882;12.598;2024-02-28T09:54:05;64159.94;;;-137.53
64904;BMP280;51401;48.882;12.598;2024-02-28T09:56:32;64155.97;;;-137.53
64904;BMP280;51401;48.882;12.598;2024-02-28T09:58:58;64159.94;;;-137.53
64904;BMP280;51401;48.882;12.598;2024-02-28T10:01:25;64159.94;;;-137.53
64904;BMP280;51401;48.882;12.598;2024-02-28T10:03:52;64159.94;;;-137.53
64904;BMP280;51401;48.882;12.598;2024-02-28T10:06:21;64157.97;;;-137.53
64904;BMP280;51401;48.882;12.598;2024-02-28T10:08:47;64161.94;;;-137.53
64904;BMP280;51401;48.882;12.598;2024-02-28T10:11:22;64159.94;;;-137.53
64904;BMP280;51401;48.882;12.598;2024-02-28T10:13:48;64159.94;;;-137.53
64904;BMP280;51401;48.882;12.598;2024-02-28T10:16:13;64159.94;;;-137.53
64904;BMP280;51401;48.882;12.598;2024-02-28T10:18:42;64159.94;;;-137.53
64904;BMP280;51401;48.882;12.598;2024-02-28T10:21:07;64161.94;;;-137.53
64904;BMP280;51401;48.882;12.598;2024-02-28T10:23:32;64159.94;;;-137.53
64904;BMP280;51401;48.882;12.598;2024-02-28T10:26:00;64159.94;;;-137.53
64904;BMP280;51401;48.882;12.598;2024-02-28T10:28:25;64159.94;;;-137.53
64904;BMP280;51401;48.882;12.598;2024-02-28T10:30:51;64159.94;;;-137.53
64904;BMP280;51401;48.882;12.598;2024-02-28T10:33:17;64155.97;;;-137.53
64904;BMP280;51401;48.882;12.598;2024-02-28T10:35:43;64157.97;;;-137.53
64904;BMP280;51401;48.882;12.598;2024-02-28T10:38:12;64159.94;;;-137.53
64904;BMP280;51401;48.882;12.598;2024-02-28T10:40:40;64154.00;;;-137.53
64904;BMP280;51401;48.882;12.598;2024-02-28T10:43:07;64157.97;;;-137.53
64904;BMP280;51401;48.882;12.598;2024-02-28T10:45:38;64159.94;;;-137.53
64904;BMP280;51401;48.882;12.598;2024-02-28T10:48:06;64157.97;;;-137.53
64904;BMP280;51401;48.882;12.598;2024-02-28T10:50:33;64155.97;;;-137.53
64904;BMP280;51401;48.882;12.598;2024-02-28T10:53:01;64155.97;;;-137.53
64904;BMP280;51401;48.882;12.598;2024-02-28T10:55:33;64155.97;;;-137.53
64904;BMP280;51401;48.882;12.598;2024-02-28T10:58:09;64155.97;;;-137.53
64904;BMP280;51401;48.882;12.598;2024-02-28T11:00:36;64159.94;;;-137.53
64904;BMP280;51401;48.882;12.598;2024-02-28T11:03:04;64155.97;;;-137.53
64904;BMP280;51401;48.882;12.598;2024-02-28T11:05:37;64159.94;;;-137.53
64904;BMP280;51401;48.882;12.598;2024-02-28T11:08:27;64157.97;;;-137.53
64904;BMP280;51401;48.882;12.598;2024-02-28T11:11:02;64157.97;;;-137.53
64904;BMP280;51401;48.882;12.598;2024-02-28T11:13:31;64155.97;;;-137.53
64904;BMP280;51401;48.882;12.598;2024-02-28T11:16:08;64155.97;;;-137.53
64904;BMP280;51401;48.882;12.598;2024-02-28T11:18:33;64155.97;;;-137.53
64904;BMP280;51401;48.882;12.598;2024-02-28T11:20:59;64155.97;;;-137.53
64904;BMP280;51401;48.882;12.598;2024-02-28T11:23:24;64155.97;;;-137.53
64904;BMP280;51401;48.882;12.598;2024-02-28T11:25:49;64155.97;;;-137.53
64904;BMP280;51401;48.882;12.598;2024-02-28T11:28:15;64157.97;;;-137.53
64904;BMP280;51401;48.882;12.598;2024-02-28T11:30:40;64155.97;;;-137.53
64904;BMP280;51401;48.882;12.598;2024-02-28T11:33:06;64155.97;;;-137.53
64904;BMP280;51401;48.882;12.598;2024-02-28T11:35:33;64155.97;;;-137.53
64904;BMP280;51401;48.882;12.598;2024-02-28T11:37:59;64152.00;;;-137.53
64904;BMP280;51401;48.882;12.598;2024-02-28T11:40:25;64157.97;;;-137.53
64904;BMP280;51401;48.882;12.598;2024-02-28T11:42:51;64155.97;;;-137.53
64904;BMP280;51401;48.882;12.598;2024-02-28T11:45:17;64155.97;;;-137.53
64904;BMP280;51401;48.882;12.598;2024-02-28T11:47:42;64155.97;;;-137.53
64904;BMP280;51401;48.882;12.598;2024-02-28T11:50:07;64154.00;;;-137.53
64904;BMP280;51401;48.882;12.598;2024-02-28T11:52:36;64154.00;;;-137.53
64904;BMP280;51401;48.882;12.598;2024-02-28T11:55:02;64155.97;;;-137.53
64904;BMP280;51401;48.882;12.598;2024-02-28T11:57:28;64155.97;;;-137.53
64904;BMP280;51401;48.882;12.598;2024-02-28T11:59:56;64155.97;;;-137.53
64904;BMP280;51401;48.882;12.598;2024-02-28T12:02:22;64155.97;;;-137.53
64904;BMP280;51401;48.882;12.598;2024-02-28T12:04:50;64155.97;;;-137.53
64904;BMP280;51401;48.882;12.598;2024-02-28T12:07:15;64155.97;;;-137.53
64904;BMP280;51401;48.882;12.598;2024-02-28T12:09:41;64152.00;;;-137.53
64904;BMP280;51401;48.882;12.598;2024-02-28T12:12:06;64154.00;;;-137.53
64904;BMP280;51401;48.882;12.598;2024-02-28T12:14:35;64155.97;;;-137.53
64904;BMP280;51401;48.882;12.598;2024-02-28T12:17:01;64159.94;;;-137.53
64904;BMP280;51401;48.882;12.598;2024-02-28T12:19:26;64155.97;;;-137.53
64904;BMP280;51401;48.882;12.598;2024-02-28T12:21:51;64159.94;;;-137.53
64904;BMP280;51401;48.882;12.598;2024-02-28T12:24:16;64159.94;;;-137.53
64904;BMP280;51401;48.882;12.598;2024-02-28T12:26:42;64155.97;;;-137.53
64904;BMP280;51401;48.882;12.598;2024-02-28T12:29:07;64155.97;;;-137.53
64904;BMP280;51401;48.882;12.598;2024-02-28T12:31:35;64154.00;;;-137.53
64904;BMP280;51401;48.882;12.598;2024-02-28T12:34:01;64155.97;;;-137.53
64904;BMP280;51401;48.882;12.598;2024-02-28T12:36:29;64154.00;;;-137.53
64904;BMP280;51401;48.882;12.598;2024-02-28T12:38:56;64154.00;;;-137.53
64904;BMP280;51401;48.882;12.598;2024-02-28T12:41:21;64152.00;;;-137.53
64904;BMP280;51401;48.882;12.598;2024-02-28T12:43:46;64155.97;;;-137.53
64904;BMP280;51401;48.882;12.598;2024-02-28T12:46:12;64155.97;;;-137.53
64904;BMP280;51401;48.882;12.598;2024-02-28T12:48:38;64157.97;;;-137.53
64904;BMP280;51401;48.882;12.598;2024-02-28T12:51:06;64157.97;;;-137.53
64904;BMP280;51401;48.882;12.598;2024-02-28T12:53:33;64155.97;;;-137.53
64904;BMP280;51401;48.882;12.598;2024-02-28T12:55:59;64152.00;;;-137.53
64904;BMP280;51401;48.882;12.598;2024-02-28T12:58:24;64152.00;;;-137.53
64904;BMP280;51401;48.882;12.598;2024-02-28T13:00:50;64155.97;;;-137.53
64904;BMP280;51401;48.882;12.598;2024-02-28T13:03:15;64155.97;;;-137.53
64904;BMP280;51401;48.882;12.598;2024-02-28T13:05:41;64155.97;;;-137.53
64904;BMP280;51401;48.882;12.598;2024-02-28T13:08:07;64155.97;;;-137.53
64904;BMP280;51401;48.882;12.598;2024-02-28T13:10:32;64154.00;;;-137.53
64904;BMP280;51401;48.882;12.598;2024-02-28T13:13:00;64155.97;;;-137.53
64904;BMP280;51401;48.882;12.598;2024-02-28T13:15:25;64155.97;;;-137.53
64904;BMP280;51401;48.882;12.598;2024-02-28T13:17:50;64152.00;;;-137.53
64904;BMP280;51401;48.882;12.598;2024-02-28T13:20:17;64154.00;;;-137.53
64904;BMP280;51401;48.882;12.598;2024-02-28T13:22:42;64152.00;;;-137.53
64904;BMP280;51401;48.882;12.598;2024-02-28T13:25:08;64155.97;;;-137.53